createdAt,value
2022-12-08T00:01:45.162Z,101248.95
2022-12-08T00:04:16.145Z,101250.23
2022-12-08T00:07:04.026Z,101253.72
2022-12-08T00:09:41.824Z,101254.86
2022-12-08T00:12:17.384Z,101250.54
2022-12-08T00:14:47.994Z,101251.79
2022-12-08T00:17:20.566Z,101248.32
2022-12-08T00:19:50.758Z,101246.51
2022-12-08T00:22:22.316Z,101253.45
2022-12-08T00:24:54.225Z,101258.14
2022-12-08T00:27:23.571Z,101259.91
2022-12-08T00:29:52.690Z,101261.20
2022-12-08T00:32:22.467Z,101251.30
2022-12-08T00:34:51.588Z,101260.48
2022-12-08T00:37:20.599Z,101264.90
2022-12-08T00:39:49.462Z,101269.39
2022-12-08T00:42:18.457Z,101271.41
2022-12-08T00:44:48.249Z,101275.27
2022-12-08T00:47:22.112Z,101277.17
2022-12-08T00:49:53.971Z,101277.88
2022-12-08T00:52:23.160Z,101279.34
2022-12-08T00:54:52.320Z,101284.61
2022-12-08T00:57:21.703Z,101284.35
2022-12-08T00:59:50.968Z,101278.08
2022-12-08T01:02:20.100Z,101275.16
2022-12-08T01:04:49.088Z,101274.38
2022-12-08T01:07:18.228Z,101278.73
2022-12-08T01:09:50.189Z,101280.65
2022-12-08T01:12:19.235Z,101277.82
2022-12-08T01:14:48.624Z,101276.05
2022-12-08T01:17:17.908Z,101271.36
2022-12-08T01:19:47.159Z,101270.39
2022-12-08T01:22:16.232Z,101268.33
2022-12-08T01:24:45.560Z,101269.83
2022-12-08T01:27:17.213Z,101269.64
2022-12-08T01:29:46.336Z,101261.25
2022-12-08T01:32:15.692Z,101257.98
2022-12-08T01:34:44.496Z,101259.73
2022-12-08T01:37:13.688Z,101263.72
2022-12-08T01:39:42.711Z,101269.85
2022-12-08T01:42:23.081Z,101273.92
2022-12-08T01:45:00.263Z,101279.39
2022-12-08T01:47:46.476Z,101285.90
2022-12-08T01:50:16.732Z,101286.51
2022-12-08T01:52:52.240Z,101284.42
2022-12-08T01:55:25.752Z,101277.55
2022-12-08T01:58:00.263Z,101278.76
2022-12-08T02:00:29.242Z,101279.84
2022-12-08T02:03:22.234Z,101281.58
2022-12-08T02:05:52.286Z,101281.20
2022-12-08T02:08:22.168Z,101279.45
2022-12-08T02:10:55.156Z,101279.55
2022-12-08T02:13:25.495Z,101276.74
2022-12-08T02:16:09.501Z,101277.19
2022-12-08T02:19:33.039Z,101281.13
2022-12-08T02:22:29.332Z,101282.77
2022-12-08T02:25:11.603Z,101282.43
2022-12-08T02:27:56.168Z,101281.73
2022-12-08T02:31:02.403Z,101281.05
2022-12-08T02:34:05.212Z,101283.44
2022-12-08T02:36:46.739Z,101282.91
2022-12-08T02:39:27.305Z,101284.82
2022-12-08T02:42:33.494Z,101287.92
2022-12-08T02:45:22.380Z,101295.23
2022-12-08T02:47:53.627Z,101300.83
2022-12-08T02:50:23.166Z,101305.56
2022-12-08T02:52:52.026Z,101307.39
2022-12-08T02:55:29.203Z,101312.85
2022-12-08T02:59:05.784Z,101309.35
2022-12-08T03:02:08.271Z,101305.35
2022-12-08T03:04:59.469Z,101310.11
2022-12-08T03:08:03.548Z,101313.25
2022-12-08T03:11:15.133Z,101315.53
2022-12-08T03:13:53.734Z,101315.73
2022-12-08T03:16:30.481Z,101319.18
2022-12-08T03:19:17.915Z,101323.14
2022-12-08T03:22:03.786Z,101321.77
2022-12-08T03:24:40.600Z,101322.06
2022-12-08T03:27:27.233Z,101324.89
2022-12-08T03:29:59.545Z,101327.77
2022-12-08T03:32:49.702Z,101319.61
2022-12-08T03:35:25.178Z,101329.20
2022-12-08T03:38:04.418Z,101328.41
2022-12-08T03:40:33.577Z,101327.06
2022-12-08T03:43:02.734Z,101327.36
2022-12-08T03:45:32.058Z,101331.44
2022-12-08T03:48:01.081Z,101330.34
2022-12-08T03:50:30.104Z,101332.67
2022-12-08T03:52:59.296Z,101337.63
2022-12-08T03:55:28.663Z,101337.45
2022-12-08T03:57:57.450Z,101339.86
2022-12-08T04:00:26.877Z,101343.51
2022-12-08T04:03:00.783Z,101342.15
2022-12-08T04:05:32.737Z,101341.14
2022-12-08T04:08:01.986Z,101344.10
2022-12-08T04:10:31.234Z,101343.04
2022-12-08T04:13:04.110Z,101340.21
2022-12-08T04:15:33.091Z,101336.02
2022-12-08T04:18:11.865Z,101335.11
2022-12-08T04:20:45.883Z,101332.70
2022-12-08T04:23:15.219Z,101328.07
2022-12-08T04:25:45.049Z,101323.77
2022-12-08T04:28:14.212Z,101323.16
2022-12-08T04:30:46.748Z,101319.71
2022-12-08T04:33:16.411Z,101318.51
2022-12-08T04:35:45.851Z,101318.92
2022-12-08T04:38:15.233Z,101317.73
2022-12-08T04:54:47.281Z,101312.31
2022-12-08T04:57:15.216Z,101319.15
2022-12-08T04:59:43.371Z,101322.35
2022-12-08T05:02:13.609Z,101322.15
2022-12-08T05:04:42.277Z,101326.45
2022-12-08T05:07:10.190Z,101327.51
2022-12-08T05:09:38.089Z,101330.80
2022-12-08T05:12:07.266Z,101329.45
2022-12-08T05:14:34.937Z,101331.26
2022-12-08T05:17:07.829Z,101328.81
2022-12-08T05:19:38.918Z,101332.57
2022-12-08T05:22:10.610Z,101334.11
2022-12-08T05:24:47.378Z,101339.48
2022-12-08T05:27:25.526Z,101343.29
2022-12-08T05:30:06.441Z,101345.76
2022-12-08T05:32:37.566Z,101348.89
2022-12-08T05:35:06.419Z,101358.89
2022-12-08T05:37:38.781Z,101357.38
2022-12-08T05:40:17.195Z,101359.57
2022-12-08T05:42:52.606Z,101364.14
2022-12-08T05:45:23.004Z,101368.11
2022-12-08T05:51:00.967Z,101372.38
2022-12-08T05:53:34.503Z,101377.83
2022-12-08T05:56:07.129Z,101377.58
2022-12-08T05:58:37.940Z,101380.02
2022-12-08T06:01:07.442Z,101378.63
2022-12-08T06:03:39.432Z,101377.80
2022-12-08T06:06:18.260Z,101382.20
2022-12-08T06:09:07.292Z,101384.02
2022-12-08T06:11:34.937Z,101390.33
2022-12-08T06:14:07.276Z,101391.71
2022-12-08T06:16:57.043Z,101397.70
2022-12-08T06:19:27.392Z,101401.52
2022-12-08T06:21:56.853Z,101406.55
2022-12-08T06:24:36.552Z,101411.84
2022-12-08T06:27:13.091Z,101414.32
2022-12-08T06:29:42.970Z,101416.67
2022-12-08T06:32:16.194Z,101419.34
2022-12-08T06:34:57.996Z,101419.19
2022-12-08T06:37:41.841Z,101420.48
2022-12-08T06:40:12.907Z,101420.38
2022-12-08T06:43:06.105Z,101420.95
2022-12-08T06:45:42.939Z,101424.48
2022-12-08T06:48:13.891Z,101427.95
2022-12-08T06:50:46.003Z,101425.35
2022-12-08T06:53:21.324Z,101426.41
2022-12-08T06:56:00.521Z,101422.27
2022-12-08T06:58:37.707Z,101426.45
2022-12-08T07:01:12.523Z,101426.86
2022-12-08T07:03:48.972Z,101426.32
2022-12-08T07:06:41.992Z,101430.34
2022-12-08T07:09:24.710Z,101430.17
2022-12-08T07:11:57.194Z,101435.84
2022-12-08T07:14:25.697Z,101439.45
2022-12-08T07:17:08.119Z,101444.82
2022-12-08T07:19:51.291Z,101447.27
2022-12-08T07:22:24.145Z,101441.92
2022-12-08T07:24:55.531Z,101447.68
2022-12-08T07:27:40.028Z,101446.74
2022-12-08T07:30:15.148Z,101449.64
2022-12-08T07:32:49.631Z,101453.65
2022-12-08T07:35:22.841Z,101454.47
2022-12-08T07:37:57.562Z,101447.25
2022-12-08T07:40:26.616Z,101446.85
2022-12-08T07:46:07.327Z,101453.94
2022-12-08T07:48:38.075Z,101456.25
2022-12-08T07:51:13.897Z,101456.50
2022-12-08T07:53:51.639Z,101460.70
2022-12-08T07:56:29.405Z,101462.64
2022-12-08T07:59:10.580Z,101463.75
2022-12-08T08:02:13.110Z,101464.64
2022-12-08T08:04:56.287Z,101464.08
2022-12-08T08:07:50.513Z,101470.80
2022-12-08T08:10:58.118Z,101473.95
2022-12-08T08:13:31.880Z,101477.16
2022-12-08T08:16:39.377Z,101477.05
2022-12-08T08:19:15.398Z,101472.08
2022-12-08T08:21:50.737Z,101471.73
2022-12-08T08:24:27.284Z,101473.98
2022-12-08T08:27:07.170Z,101472.86
2022-12-08T08:29:52.917Z,101472.30
2022-12-08T08:32:37.095Z,101477.02
2022-12-08T08:35:16.910Z,101477.81
2022-12-08T08:37:57.243Z,101484.50
2022-12-08T08:40:34.318Z,101484.50
2022-12-08T08:43:10.332Z,101482.38
2022-12-08T08:45:43.341Z,101479.85
2022-12-08T08:48:12.676Z,101479.55
2022-12-08T08:50:47.702Z,101477.50
2022-12-08T08:53:20.248Z,101473.64
2022-12-08T08:55:56.883Z,101470.33
2022-12-08T08:58:29.507Z,101470.27
2022-12-08T09:01:02.972Z,101470.40
2022-12-08T09:03:45.607Z,101470.86
2022-12-08T09:06:21.213Z,101465.19
2022-12-08T09:08:55.991Z,101463.46
2022-12-08T09:11:31.013Z,101461.53
2022-12-08T10:25:27.208Z,101436.92
2022-12-08T10:28:03.664Z,101429.30
2022-12-08T10:30:32.880Z,101428.95
2022-12-08T10:33:15.077Z,101424.92
2022-12-08T10:35:53.482Z,101424.79
2022-12-08T10:38:31.934Z,101429.09
2022-12-08T10:41:23.233Z,101428.67
2022-12-08T10:44:09.810Z,101429.41
2022-12-08T10:46:41.055Z,101430.55
2022-12-08T10:49:14.791Z,101434.66
2022-12-08T10:52:12.644Z,101438.90
2022-12-08T10:54:56.759Z,101438.11
2022-12-08T10:57:29.743Z,101438.85
2022-12-08T11:00:31.700Z,101442.20
2022-12-08T11:03:38.675Z,101442.36
2022-12-08T11:06:41.975Z,101439.23
2022-12-08T11:09:31.326Z,101436.48
2022-12-08T11:12:21.025Z,101430.35
2022-12-08T11:15:32.555Z,101433.84
2022-12-08T11:18:24.158Z,101428.52
2022-12-08T11:21:08.577Z,101423.67
2022-12-08T11:24:12.510Z,101425.08
2022-12-08T11:27:03.172Z,101419.98
2022-12-08T11:29:40.506Z,101407.86
2022-12-08T11:32:27.985Z,101398.58
2022-12-08T11:35:43.642Z,101401.61
2022-12-08T11:38:29.293Z,101401.46
2022-12-08T11:45:12.210Z,101409.57
2022-12-08T11:48:54.363Z,101407.39
2022-12-08T11:52:21.099Z,101406.43
2022-12-08T11:55:35.264Z,101406.06
2022-12-08T11:58:26.606Z,101408.50
2022-12-08T12:01:00.603Z,101404.50
2022-12-08T12:03:49.043Z,101402.70
2022-12-08T12:06:54.760Z,101396.30
2022-12-08T12:10:27.843Z,101395.61
2022-12-08T12:13:35.906Z,101394.39
2022-12-08T12:16:25.884Z,101389.63
2022-12-08T12:19:26.361Z,101390.77
2022-12-08T12:21:57.110Z,101391.64
2022-12-08T12:24:35.719Z,101393.64
2022-12-08T12:27:16.337Z,101393.56
2022-12-08T12:30:01.934Z,101394.34
2022-12-08T12:32:49.265Z,101393.98
2022-12-08T12:35:52.734Z,101389.07
2022-12-08T12:38:56.504Z,101383.83
2022-12-08T12:42:06.850Z,101384.33
2022-12-08T12:49:52.622Z,101388.36
2022-12-08T12:53:13.737Z,101388.53
2022-12-08T12:56:25.408Z,101392.85
2022-12-08T13:00:13.330Z,101393.41
2022-12-08T13:03:22.842Z,101381.52
2022-12-08T13:06:32.596Z,101383.42
2022-12-08T13:09:55.756Z,101382.41
2022-12-08T13:12:40.102Z,101384.21
2022-12-08T13:15:20.978Z,101378.39
2022-12-08T13:21:13.894Z,101375.09
2022-12-08T13:24:29.029Z,101375.41
2022-12-08T13:27:10.918Z,101377.92
2022-12-08T13:30:44.552Z,101373.30
2022-12-08T13:33:55.080Z,101373.20
2022-12-08T13:37:22.793Z,101374.74
2022-12-08T13:40:09.881Z,101373.62
2022-12-08T13:43:13.538Z,101371.14
2022-12-08T13:46:57.917Z,101374.16
2022-12-08T13:50:54.739Z,101375.59
2022-12-08T13:57:59.966Z,101377.20
2022-12-08T14:00:33.034Z,101383.36
2022-12-08T14:03:02.285Z,101385.61
2022-12-08T14:06:11.745Z,101386.25
2022-12-08T14:09:03.751Z,101381.69
2022-12-08T14:11:41.667Z,101379.48
2022-12-08T14:15:01.342Z,101380.31
2022-12-08T14:17:22.971Z,101379.36
2022-12-08T14:20:12.996Z,101374.10
2022-12-08T14:22:55.456Z,101376.13
2022-12-08T14:25:27.921Z,101378.55
2022-12-08T14:28:06.391Z,101377.52
2022-12-08T14:30:41.378Z,101379.52
2022-12-08T14:33:18.972Z,101378.55
2022-12-08T14:35:56.580Z,101374.84
2022-12-08T14:38:27.255Z,101374.05
2022-12-08T14:41:00.849Z,101371.36
2022-12-08T14:43:33.858Z,101371.23
2022-12-08T15:03:42.762Z,101373.06
2022-12-08T15:06:16.759Z,101370.02
2022-12-08T15:09:00.103Z,101368.52
2022-12-08T15:11:43.162Z,101372.98
2022-12-08T15:14:41.439Z,101375.08
2022-12-08T15:17:39.705Z,101371.39
2022-12-08T15:20:44.703Z,101375.08
2022-12-08T15:23:40.746Z,101375.24
2022-12-08T15:26:23.122Z,101377.45
2022-12-08T15:28:55.987Z,101382.52
2022-12-08T15:31:42.783Z,101379.57
2022-12-08T15:34:33.846Z,101378.66
2022-12-08T15:37:21.498Z,101375.33
2022-12-08T15:40:09.612Z,101377.10
2022-12-08T15:42:44.219Z,101369.10
2022-12-08T15:45:57.456Z,101366.49
2022-12-08T15:48:36.563Z,101365.80
2022-12-08T15:51:11.850Z,101362.14
2022-12-08T15:54:01.604Z,101365.52
2022-12-08T15:58:04.601Z,101365.40
2022-12-08T16:00:53.320Z,101367.91
2022-12-08T16:04:19.957Z,101367.69
2022-12-08T16:23:41.846Z,101384.24
2022-12-08T16:27:58.954Z,101384.16
2022-12-08T16:30:03.548Z,101380.83
2022-12-08T16:32:39.083Z,101381.69
2022-12-08T16:35:14.545Z,101376.60
2022-12-08T16:37:49.700Z,101374.50
2022-12-08T16:41:30.074Z,101363.34
2022-12-08T16:57:56.159Z,101349.42
2022-12-08T17:00:40.945Z,101354.83
2022-12-08T17:03:15.655Z,101355.30
2022-12-08T17:05:46.206Z,101360.09
2022-12-08T17:08:16.387Z,101362.52
2022-12-08T17:11:06.295Z,101359.98
2022-12-08T17:13:41.221Z,101368.04
2022-12-08T17:16:15.676Z,101368.89
2022-12-08T17:18:45.169Z,101365.06
2022-12-08T17:21:18.613Z,101364.21
2022-12-08T17:23:49.403Z,101360.34
2022-12-08T17:26:21.432Z,101354.65
2022-12-08T17:29:00.509Z,101358.85
2022-12-08T17:31:33.283Z,101363.91
2022-12-08T17:34:12.563Z,101364.47
2022-12-08T17:36:45.964Z,101360.98
2022-12-08T17:39:19.220Z,101362.45
2022-12-08T17:41:51.744Z,101362.27
2022-12-08T17:44:22.075Z,101361.20
2022-12-08T17:46:53.493Z,101366.58
2022-12-08T17:49:30.212Z,101371.51
2022-12-08T17:52:03.384Z,101371.38
2022-12-08T17:54:32.759Z,101365.92
2022-12-08T17:57:05.824Z,101364.79
2022-12-08T17:59:35.361Z,101361.07
2022-12-08T18:02:04.759Z,101362.41
2022-12-08T18:04:33.769Z,101359.70
2022-12-08T18:07:04.409Z,101355.27
2022-12-08T18:09:35.204Z,101354.27
2022-12-08T18:12:08.386Z,101354.84
2022-12-08T18:14:38.241Z,101345.83
2022-12-08T18:17:07.391Z,101342.50
2022-12-08T18:19:36.389Z,101338.50
2022-12-08T18:22:05.997Z,101343.41
2022-12-08T18:24:35.129Z,101340.31
2022-12-08T18:27:05.259Z,101336.73
2022-12-08T18:29:34.390Z,101334.66
2022-12-08T18:32:03.846Z,101336.79
2022-12-08T18:34:33.452Z,101344.77
2022-12-08T18:37:09.417Z,101348.61
2022-12-08T18:39:42.861Z,101356.49
2022-12-08T18:42:25.037Z,101356.67
2022-12-08T18:45:04.768Z,101349.06
2022-12-08T18:47:44.020Z,101342.85
2022-12-08T18:50:16.858Z,101341.55
2022-12-08T18:52:47.286Z,101340.16
2022-12-08T18:55:16.554Z,101341.02
2022-12-08T18:57:51.374Z,101346.92
2022-12-08T19:00:25.787Z,101349.95
2022-12-08T19:02:55.788Z,101351.63
2022-12-08T19:05:25.316Z,101345.10
2022-12-08T19:07:54.792Z,101342.66
2022-12-08T19:10:29.504Z,101341.98
2022-12-08T19:12:59.628Z,101352.88
2022-12-08T19:15:29.503Z,101353.58
2022-12-08T19:17:59.401Z,101347.56
2022-12-08T19:20:29.222Z,101339.42
2022-12-08T19:23:03.436Z,101333.24
2022-12-08T19:25:32.287Z,101330.44
2022-12-08T19:28:03.030Z,101335.30
2022-12-08T19:30:36.499Z,101334.13
2022-12-08T19:33:06.509Z,101336.13
2022-12-08T19:35:37.196Z,101338.71
2022-12-08T19:38:08.123Z,101345.84
2022-12-08T19:40:56.307Z,101347.92
2022-12-08T19:43:45.122Z,101337.83
2022-12-08T19:46:17.746Z,101338.57
2022-12-08T19:48:46.639Z,101341.61
2022-12-08T19:51:16.743Z,101332.50
2022-12-08T19:53:47.987Z,101332.67
2022-12-08T19:56:17.238Z,101338.23
2022-12-08T19:58:46.855Z,101339.49
2022-12-08T20:01:17.089Z,101338.47
2022-12-08T20:03:47.674Z,101331.14
2022-12-08T20:06:18.818Z,101318.85
2022-12-08T20:08:50.777Z,101321.05
2022-12-08T20:11:22.373Z,101318.09
2022-12-08T20:13:51.958Z,101318.11
2022-12-08T20:16:24.556Z,101304.38
2022-12-08T20:18:53.826Z,101297.94
2022-12-08T20:21:22.897Z,101291.25
2022-12-08T20:23:52.239Z,101291.90
2022-12-08T20:26:23.397Z,101282.66
2022-12-08T20:28:53.279Z,101282.96
2022-12-08T20:31:27.512Z,101282.46
2022-12-08T20:33:57.579Z,101283.02
2022-12-08T20:36:27.743Z,101276.60
2022-12-08T20:38:57.861Z,101268.73
2022-12-08T20:41:31.840Z,101269.92
2022-12-08T20:44:06.010Z,101267.22
2022-12-08T20:46:35.228Z,101261.45
2022-12-08T20:49:05.145Z,101266.39
2022-12-08T20:51:35.219Z,101268.38
2022-12-08T20:54:05.818Z,101271.09
2022-12-08T20:56:34.740Z,101278.83
2022-12-08T20:59:03.659Z,101274.86
2022-12-08T21:01:32.948Z,101269.96
2022-12-08T21:04:02.380Z,101267.27
2022-12-08T21:06:31.883Z,101260.81
2022-12-08T21:09:01.241Z,101260.00
2022-12-08T21:11:31.166Z,101258.61
2022-12-08T21:14:00.415Z,101251.64
2022-12-08T21:16:30.626Z,101243.18
2022-12-08T21:19:00.017Z,101244.25
2022-12-08T21:21:28.841Z,101241.10
2022-12-08T21:23:57.957Z,101239.53
2022-12-08T21:26:27.059Z,101234.45
2022-12-08T21:28:59.385Z,101231.61
2022-12-08T21:31:32.148Z,101237.23
2022-12-08T21:34:02.868Z,101240.27
2022-12-08T21:36:31.992Z,101231.15
2022-12-08T21:39:03.004Z,101225.02
2022-12-08T21:41:50.744Z,101218.22
2022-12-08T21:44:20.252Z,101215.82
2022-12-08T21:46:49.587Z,101212.83
2022-12-08T21:49:18.628Z,101214.04
2022-12-08T21:51:47.810Z,101214.08
2022-12-08T21:54:19.184Z,101214.84
2022-12-08T21:56:49.844Z,101218.45
2022-12-08T21:59:19.926Z,101220.08
2022-12-08T22:01:48.997Z,101221.55
2022-12-08T22:04:19.481Z,101224.92
2022-12-08T22:06:49.091Z,101224.35
2022-12-08T22:09:18.196Z,101220.11
2022-12-08T22:11:47.561Z,101217.72
2022-12-08T22:14:21.210Z,101212.82
2022-12-08T22:16:58.311Z,101202.61
2022-12-08T22:19:27.815Z,101194.77
2022-12-08T22:25:05.510Z,101184.51
2022-12-08T22:27:41.553Z,101185.02
2022-12-08T22:30:11.879Z,101183.48
2022-12-08T22:32:42.442Z,101176.70
2022-12-08T22:35:12.054Z,101172.42
2022-12-08T22:37:41.407Z,101172.71
2022-12-08T22:40:14.527Z,101175.88
2022-12-08T22:42:43.471Z,101173.69
2022-12-08T22:45:12.700Z,101173.16
2022-12-08T22:47:41.856Z,101173.25
2022-12-08T22:50:11.575Z,101176.29
2022-12-08T22:52:40.922Z,101175.33
2022-12-08T22:55:09.970Z,101167.98
2022-12-08T22:57:39.048Z,101162.49
2022-12-08T23:00:11.979Z,101152.11
2022-12-08T23:02:42.021Z,101152.61
2022-12-08T23:05:11.701Z,101153.08
2022-12-08T23:07:41.977Z,101153.63
2022-12-08T23:10:11.917Z,101153.02
2022-12-08T23:12:41.756Z,101152.39
2022-12-08T23:15:15.154Z,101153.76
2022-12-08T23:17:44.159Z,101148.24
2022-12-08T23:20:13.422Z,101143.95
2022-12-08T23:22:42.156Z,101136.39
2022-12-08T23:25:11.280Z,101143.85
2022-12-08T23:27:40.416Z,101150.69
2022-12-08T23:30:12.253Z,101152.34
2022-12-08T23:32:41.258Z,101158.39
2022-12-08T23:35:11.011Z,101156.42
2022-12-08T23:37:39.809Z,101164.42
2022-12-08T23:40:09.754Z,101162.35
2022-12-08T23:42:39.366Z,101162.29
2022-12-08T23:45:09.585Z,101154.96
2022-12-08T23:47:38.550Z,101154.70
2022-12-08T23:50:08.728Z,101157.44
2022-12-08T23:52:39.792Z,101157.22
2022-12-08T23:55:09.569Z,101152.14
2022-12-08T23:57:38.827Z,101145.77
